sensor_id;sensor_type;location;lat;lon;timestamp;temperature;humidity
12166;DHT22;6146;48.128;11.476;2022-10-23T00:02:24;10.60;99.90
12166;DHT22;6146;48.128;11.476;2022-10-23T00:04:50;10.60;99.90
12166;DHT22;6146;48.128;11.476;2022-10-23T00:07:16;10.50;99.90
12166;DHT22;6146;48.128;11.476;2022-10-23T00:09:42;10.50;99.90
12166;DHT22;6146;48.128;11.476;2022-10-23T00:12:08;10.50;99.90
12166;DHT22;6146;48.128;11.476;2022-10-23T00:14:33;10.40;99.90
12166;DHT22;6146;48.128;11.476;2022-10-23T00:16:59;10.40;99.90
12166;DHT22;6146;48.128;11.476;2022-10-23T00:19:24;10.30;99.90
12166;DHT22;6146;48.128;11.476;2022-10-23T00:21:50;10.20;99.90
12166;DHT22;6146;48.128;11.476;2022-10-23T00:24:15;10.20;99.90
12166;DHT22;6146;48.128;11.476;2022-10-23T00:26:41;9.20;99.90
12166;DHT22;6146;48.128;11.476;2022-10-23T00:29:07;10.10;99.90
12166;DHT22;6146;48.128;11.476;2022-10-23T00:31:33;10.10;99.90
12166;DHT22;6146;48.128;11.476;2022-10-23T00:34:00;10.10;99.90
12166;DHT22;6146;48.128;11.476;2022-10-23T00:36:25;10.00;99.90
12166;DHT22;6146;48.128;11.476;2022-10-23T00:38:51;10.00;99.90
12166;DHT22;6146;48.128;11.476;2022-10-23T00:41:27;10.00;99.90
12166;DHT22;6146;48.128;11.476;2022-10-23T00:46:42;9.80;99.90
12166;DHT22;6146;48.128;11.476;2022-10-23T00:49:09;9.80;99.90
12166;DHT22;6146;48.128;11.476;2022-10-23T00:51:40;9.70;99.90
12166;DHT22;6146;48.128;11.476;2022-10-23T00:54:08;9.60;99.90
12166;DHT22;6146;48.128;11.476;2022-10-23T00:56:37;9.60;99.90
12166;DHT22;6146;48.128;11.476;2022-10-23T00:59:03;9.50;99.90
12166;DHT22;6146;48.128;11.476;2022-10-23T01:01:29;9.50;99.90
12166;DHT22;6146;48.128;11.476;2022-10-23T01:03:54;9.40;99.90
12166;DHT22;6146;48.128;11.476;2022-10-23T01:11:47;9.30;99.90
12166;DHT22;6146;48.128;11.476;2022-10-23T01:14:22;9.30;99.90
12166;DHT22;6146;48.128;11.476;2022-10-23T01:25:46;9.20;99.90
12166;DHT22;6146;48.128;11.476;2022-10-23T01:28:24;9.20;99.90
12166;DHT22;6146;48.128;11.476;2022-10-23T01:30:50;9.20;99.90
12166;DHT22;6146;48.128;11.476;2022-10-23T01:33:23;9.20;99.90
12166;DHT22;6146;48.128;11.476;2022-10-23T01:35:52;9.30;99.90
12166;DHT22;6146;48.128;11.476;2022-10-23T01:38:30;9.30;99.90
12166;DHT22;6146;48.128;11.476;2022-10-23T01:44:12;9.40;99.90
12166;DHT22;6146;48.128;11.476;2022-10-23T01:46:41;9.40;99.90
12166;DHT22;6146;48.128;11.476;2022-10-23T01:49:09;9.40;99.90
12166;DHT22;6146;48.128;11.476;2022-10-23T01:51:37;9.40;99.90
12166;DHT22;6146;48.128;11.476;2022-10-23T01:54:07;9.30;99.90
12166;DHT22;6146;48.128;11.476;2022-10-23T01:56:36;9.30;99.90
12166;DHT22;6146;48.128;11.476;2022-10-23T01:59:08;9.30;99.90
12166;DHT22;6146;48.128;11.476;2022-10-23T02:01:36;9.20;99.90
12166;DHT22;6146;48.128;11.476;2022-10-23T02:04:06;9.20;99.90
12166;DHT22;6146;48.128;11.476;2022-10-23T02:06:32;9.10;99.90
12166;DHT22;6146;48.128;11.476;2022-10-23T02:08:58;9.10;99.90
12166;DHT22;6146;48.128;11.476;2022-10-23T02:11:24;9.00;99.90
12166;DHT22;6146;48.128;11.476;2022-10-23T02:13:54;9.00;99.90
12166;DHT22;6146;48.128;11.476;2022-10-23T02:16:50;9.00;99.90
12166;DHT22;6146;48.128;11.476;2022-10-23T02:19:23;9.00;99.90
12166;DHT22;6146;48.128;11.476;2022-10-23T02:22:16;9.00;99.90
12166;DHT22;6146;48.128;11.476;2022-10-23T02:25:00;8.90;99.90
12166;DHT22;6146;48.128;11.476;2022-10-23T02:27:41;8.90;99.90
12166;DHT22;6146;48.128;11.476;2022-10-23T02:30:11;8.90;99.90
12166;DHT22;6146;48.128;11.476;2022-10-23T02:32:41;8.90;99.90
12166;DHT22;6146;48.128;11.476;2022-10-23T02:35:08;8.90;99.90
12166;DHT22;6146;48.128;11.476;2022-10-23T02:37:34;8.90;99.90
12166;DHT22;6146;48.128;11.476;2022-10-23T02:40:00;8.90;99.90
12166;DHT22;6146;48.128;11.476;2022-10-23T02:45:16;9.00;99.90
12166;DHT22;6146;48.128;11.476;2022-10-23T02:48:01;9.10;99.90
12166;DHT22;6146;48.128;11.476;2022-10-23T02:53:32;9.10;99.90
12166;DHT22;6146;48.128;11.476;2022-10-23T02:56:11;9.10;99.90
12166;DHT22;6146;48.128;11.476;2022-10-23T02:58:50;9.10;99.90
12166;DHT22;6146;48.128;11.476;2022-10-23T03:01:26;9.10;99.90
12166;DHT22;6146;48.128;11.476;2022-10-23T03:03:55;9.10;99.90
12166;DHT22;6146;48.128;11.476;2022-10-23T03:06:22;9.10;99.90
12166;DHT22;6146;48.128;11.476;2022-10-23T03:08:52;9.10;99.90
12166;DHT22;6146;48.128;11.476;2022-10-23T03:11:18;9.10;99.90
12166;DHT22;6146;48.128;11.476;2022-10-23T03:13:44;9.00;99.90
12166;DHT22;6146;48.128;11.476;2022-10-23T03:16:09;9.00;99.90
12166;DHT22;6146;48.128;11.476;2022-10-23T03:18:35;9.00;99.90
12166;DHT22;6146;48.128;11.476;2022-10-23T03:21:01;8.90;99.90
12166;DHT22;6146;48.128;11.476;2022-10-23T03:23:26;8.90;99.90
12166;DHT22;6146;48.128;11.476;2022-10-23T03:25:52;8.80;99.90
12166;DHT22;6146;48.128;11.476;2022-10-23T03:28:19;8.80;99.90
12166;DHT22;6146;48.128;11.476;2022-10-23T03:30:44;8.80;99.90
12166;DHT22;6146;48.128;11.476;2022-10-23T03:33:10;8.70;99.90
12166;DHT22;6146;48.128;11.476;2022-10-23T03:35:35;8.60;99.90
12166;DHT22;6146;48.128;11.476;2022-10-23T03:38:01;8.60;99.90
12166;DHT22;6146;48.128;11.476;2022-10-23T03:40:26;8.60;99.90
12166;DHT22;6146;48.128;11.476;2022-10-23T03:42:52;8.60;99.90
12166;DHT22;6146;48.128;11.476;2022-10-23T03:45:17;8.60;99.90
12166;DHT22;6146;48.128;11.476;2022-10-23T03:47:43;8.60;99.90
12166;DHT22;6146;48.128;11.476;2022-10-23T03:50:10;8.60;99.90
12166;DHT22;6146;48.128;11.476;2022-10-23T03:52:36;8.60;99.90
12166;DHT22;6146;48.128;11.476;2022-10-23T03:55:02;8.60;99.90
12166;DHT22;6146;48.128;11.476;2022-10-23T03:57:27;8.50;99.90
12166;DHT22;6146;48.128;11.476;2022-10-23T03:59:53;8.40;99.90
12166;DHT22;6146;48.128;11.476;2022-10-23T04:02:19;8.40;99.90
12166;DHT22;6146;48.128;11.476;2022-10-23T04:04:44;8.30;99.90
12166;DHT22;6146;48.128;11.476;2022-10-23T04:07:10;8.30;99.90
12166;DHT22;6146;48.128;11.476;2022-10-23T04:09:36;8.40;99.90
12166;DHT22;6146;48.128;11.476;2022-10-23T04:12:01;8.30;99.90
12166;DHT22;6146;48.128;11.476;2022-10-23T04:14:27;8.30;99.90
12166;DHT22;6146;48.128;11.476;2022-10-23T04:16:52;8.30;99.90
12166;DHT22;6146;48.128;11.476;2022-10-23T04:19:18;8.30;99.90
12166;DHT22;6146;48.128;11.476;2022-10-23T04:21:43;8.30;99.90
12166;DHT22;6146;48.128;11.476;2022-10-23T04:24:09;8.30;99.90
12166;DHT22;6146;48.128;11.476;2022-10-23T04:26:35;8.30;99.90
12166;DHT22;6146;48.128;11.476;2022-10-23T04:29:00;8.30;99.90
12166;DHT22;6146;48.128;11.476;2022-10-23T04:31:26;8.30;99.90
12166;DHT22;6146;48.128;11.476;2022-10-23T04:33:52;8.30;99.90
12166;DHT22;6146;48.128;11.476;2022-10-23T04:36:17;8.30;99.90
12166;DHT22;6146;48.128;11.476;2022-10-23T04:38:43;8.30;99.90
12166;DHT22;6146;48.128;11.476;2022-10-23T04:41:09;8.30;99.90
12166;DHT22;6146;48.128;11.476;2022-10-23T04:43:35;8.30;99.90
12166;DHT22;6146;48.128;11.476;2022-10-23T04:46:00;8.40;99.90
12166;DHT22;6146;48.128;11.476;2022-10-23T04:48:26;8.40;99.90
12166;DHT22;6146;48.128;11.476;2022-10-23T04:50:58;8.40;99.90
12166;DHT22;6146;48.128;11.476;2022-10-23T04:53:25;8.40;99.90
12166;DHT22;6146;48.128;11.476;2022-10-23T04:55:52;8.50;99.90
12166;DHT22;6146;48.128;11.476;2022-10-23T04:58:19;8.50;99.90
12166;DHT22;6146;48.128;11.476;2022-10-23T05:00:45;8.40;99.90
12166;DHT22;6146;48.128;11.476;2022-10-23T05:03:11;8.50;99.90
12166;DHT22;6146;48.128;11.476;2022-10-23T05:05:37;8.40;99.90
12166;DHT22;6146;48.128;11.476;2022-10-23T05:08:02;8.40;99.90
12166;DHT22;6146;48.128;11.476;2022-10-23T05:10:28;8.40;99.90
12166;DHT22;6146;48.128;11.476;2022-10-23T05:12:54;8.40;99.90
12166;DHT22;6146;48.128;11.476;2022-10-23T05:15:20;8.40;99.90
12166;DHT22;6146;48.128;11.476;2022-10-23T05:17:48;8.40;99.90
12166;DHT22;6146;48.128;11.476;2022-10-23T05:20:18;8.40;99.90
12166;DHT22;6146;48.128;11.476;2022-10-23T05:22:45;8.40;99.90
12166;DHT22;6146;48.128;11.476;2022-10-23T05:25:13;8.40;99.90
12166;DHT22;6146;48.128;11.476;2022-10-23T05:27:39;8.40;99.90
12166;DHT22;6146;48.128;11.476;2022-10-23T05:30:05;8.40;99.90
12166;DHT22;6146;48.128;11.476;2022-10-23T05:32:31;8.40;99.90
12166;DHT22;6146;48.128;11.476;2022-10-23T05:34:58;8.40;99.90
12166;DHT22;6146;48.128;11.476;2022-10-23T05:37:25;8.40;99.90
12166;DHT22;6146;48.128;11.476;2022-10-23T05:39:51;8.50;99.90
12166;DHT22;6146;48.128;11.476;2022-10-23T05:42:17;8.60;99.90
12166;DHT22;6146;48.128;11.476;2022-10-23T05:44:42;8.60;99.90
12166;DHT22;6146;48.128;11.476;2022-10-23T05:47:08;8.60;99.90
12166;DHT22;6146;48.128;11.476;2022-10-23T05:49:34;8.60;99.90
12166;DHT22;6146;48.128;11.476;2022-10-23T05:51:59;8.60;99.90
12166;DHT22;6146;48.128;11.476;2022-10-23T05:54:25;8.60;99.90
12166;DHT22;6146;48.128;11.476;2022-10-23T05:56:51;8.60;99.90
12166;DHT22;6146;48.128;11.476;2022-10-23T05:59:17;8.60;99.90
12166;DHT22;6146;48.128;11.476;2022-10-23T06:01:42;8.60;99.90
12166;DHT22;6146;48.128;11.476;2022-10-23T06:04:08;8.70;99.90
12166;DHT22;6146;48.128;11.476;2022-10-23T06:06:33;8.60;99.90
12166;DHT22;6146;48.128;11.476;2022-10-23T06:09:01;8.70;99.90
12166;DHT22;6146;48.128;11.476;2022-10-23T06:11:27;8.70;99.90
12166;DHT22;6146;48.128;11.476;2022-10-23T06:13:53;8.80;99.90
12166;DHT22;6146;48.128;11.476;2022-10-23T06:16:21;8.80;99.90
12166;DHT22;6146;48.128;11.476;2022-10-23T06:18:47;8.90;99.90
12166;DHT22;6146;48.128;11.476;2022-10-23T06:21:13;8.90;99.90
12166;DHT22;6146;48.128;11.476;2022-10-23T06:23:40;9.00;99.90
12166;DHT22;6146;48.128;11.476;2022-10-23T06:26:08;9.10;99.90
12166;DHT22;6146;48.128;11.476;2022-10-23T06:28:34;9.20;99.90
12166;DHT22;6146;48.128;11.476;2022-10-23T06:31:14;9.50;99.90
12166;DHT22;6146;48.128;11.476;2022-10-23T06:33:40;10.40;99.90
12166;DHT22;6146;48.128;11.476;2022-10-23T06:36:06;11.50;99.90
12166;DHT22;6146;48.128;11.476;2022-10-23T06:38:35;11.90;99.90
12166;DHT22;6146;48.128;11.476;2022-10-23T06:41:05;12.50;99.90
12166;DHT22;6146;48.128;11.476;2022-10-23T06:43:30;13.40;99.90
12166;DHT22;6146;48.128;11.476;2022-10-23T06:45:59;14.10;99.90
12166;DHT22;6146;48.128;11.476;2022-10-23T06:48:25;15.30;99.90
12166;DHT22;6146;48.128;11.476;2022-10-23T06:50:50;16.10;99.90
12166;DHT22;6146;48.128;11.476;2022-10-23T06:53:16;17.00;99.90
12166;DHT22;6146;48.128;11.476;2022-10-23T06:55:41;17.90;99.90
12166;DHT22;6146;48.128;11.476;2022-10-23T06:58:07;18.90;99.90
12166;DHT22;6146;48.128;11.476;2022-10-23T07:00:36;19.60;99.90
12166;DHT22;6146;48.128;11.476;2022-10-23T07:03:03;20.00;99.90
12166;DHT22;6146;48.128;11.476;2022-10-23T07:05:29;20.70;99.90
12166;DHT22;6146;48.128;11.476;2022-10-23T07:07:54;21.70;99.90
12166;DHT22;6146;48.128;11.476;2022-10-23T07:10:20;22.20;98.90
12166;DHT22;6146;48.128;11.476;2022-10-23T07:12:46;22.80;96.20
12166;DHT22;6146;48.128;11.476;2022-10-23T07:15:13;23.20;94.00
12166;DHT22;6146;48.128;11.476;2022-10-23T07:17:39;23.70;91.10
12166;DHT22;6146;48.128;11.476;2022-10-23T07:20:05;24.10;90.00
12166;DHT22;6146;48.128;11.476;2022-10-23T07:22:30;23.80;87.90
12166;DHT22;6146;48.128;11.476;2022-10-23T07:24:56;23.50;90.10
12166;DHT22;6146;48.128;11.476;2022-10-23T07:27:21;23.10;90.00
12166;DHT22;6146;48.128;11.476;2022-10-23T07:29:50;22.60;90.10
12166;DHT22;6146;48.128;11.476;2022-10-23T07:32:16;22.40;90.80
12166;DHT22;6146;48.128;11.476;2022-10-23T07:34:42;21.80;91.50
12166;DHT22;6146;48.128;11.476;2022-10-23T07:37:07;20.80;93.40
12166;DHT22;6146;48.128;11.476;2022-10-23T07:39:33;19.90;96.10
12166;DHT22;6146;48.128;11.476;2022-10-23T07:41:58;19.70;96.10
12166;DHT22;6146;48.128;11.476;2022-10-23T07:44:24;19.70;96.70
12166;DHT22;6146;48.128;11.476;2022-10-23T07:46:49;19.80;98.30
12166;DHT22;6146;48.128;11.476;2022-10-23T07:49:15;20.10;97.00
12166;DHT22;6146;48.128;11.476;2022-10-23T07:51:40;20.30;96.40
12166;DHT22;6146;48.128;11.476;2022-10-23T07:54:08;20.80;96.00
12166;DHT22;6146;48.128;11.476;2022-10-23T07:56:35;21.40;93.70
12166;DHT22;6146;48.128;11.476;2022-10-23T07:59:00;21.90;92.90
12166;DHT22;6146;48.128;11.476;2022-10-23T08:01:30;22.00;94.00
12166;DHT22;6146;48.128;11.476;2022-10-23T08:03:56;21.90;93.00
12166;DHT22;6146;48.128;11.476;2022-10-23T08:06:21;22.20;93.00
12166;DHT22;6146;48.128;11.476;2022-10-23T08:08:47;22.00;91.70
12166;DHT22;6146;48.128;11.476;2022-10-23T08:11:14;22.00;92.20
12166;DHT22;6146;48.128;11.476;2022-10-23T08:13:40;21.40;93.00
12166;DHT22;6146;48.128;11.476;2022-10-23T08:16:06;21.80;94.10
12166;DHT22;6146;48.128;11.476;2022-10-23T08:18:32;22.90;92.40
12166;DHT22;6146;48.128;11.476;2022-10-23T08:21:01;23.60;91.20
12166;DHT22;6146;48.128;11.476;2022-10-23T08:23:28;24.20;86.50
12166;DHT22;6146;48.128;11.476;2022-10-23T08:25:58;24.80;83.60
12166;DHT22;6146;48.128;11.476;2022-10-23T08:28:25;25.00;80.70
12166;DHT22;6146;48.128;11.476;2022-10-23T08:30:50;25.10;81.70
12166;DHT22;6146;48.128;11.476;2022-10-23T08:33:16;25.30;81.20
12166;DHT22;6146;48.128;11.476;2022-10-23T08:35:41;25.50;78.00
12166;DHT22;6146;48.128;11.476;2022-10-23T08:38:07;25.80;78.80
12166;DHT22;6146;48.128;11.476;2022-10-23T08:40:34;25.20;78.10
12166;DHT22;6146;48.128;11.476;2022-10-23T08:45:38;24.10;82.00
12166;DHT22;6146;48.128;11.476;2022-10-23T08:48:47;23.80;81.80
12166;DHT22;6146;48.128;11.476;2022-10-23T08:54:19;23.70;86.40
12166;DHT22;6146;48.128;11.476;2022-10-23T08:56:57;23.60;82.70
12166;DHT22;6146;48.128;11.476;2022-10-23T08:59:32;23.50;83.60
12166;DHT22;6146;48.128;11.476;2022-10-23T09:02:12;23.10;83.30
12166;DHT22;6146;48.128;11.476;2022-10-23T09:04:44;22.30;87.60
12166;DHT22;6146;48.128;11.476;2022-10-23T09:12:41;24.00;82.70
12166;DHT22;6146;48.128;11.476;2022-10-23T09:15:11;23.60;83.10
12166;DHT22;6146;48.128;11.476;2022-10-23T09:17:44;23.40;84.60
12166;DHT22;6146;48.128;11.476;2022-10-23T09:22:44;21.70;85.60
12166;DHT22;6146;48.128;11.476;2022-10-23T09:25:19;22.40;88.70
12166;DHT22;6146;48.128;11.476;2022-10-23T09:27:49;22.30;88.50
12166;DHT22;6146;48.128;11.476;2022-10-23T09:30:34;22.90;87.90
12166;DHT22;6146;48.128;11.476;2022-10-23T09:33:29;23.40;86.30
12166;DHT22;6146;48.128;11.476;2022-10-23T09:38:30;25.00;81.10
12166;DHT22;6146;48.128;11.476;2022-10-23T09:40:59;26.10;78.60
12166;DHT22;6146;48.128;11.476;2022-10-23T09:43:26;26.80;72.50
12166;DHT22;6146;48.128;11.476;2022-10-23T09:45:58;27.30;74.00
12166;DHT22;6146;48.128;11.476;2022-10-23T09:48:24;27.30;74.40
12166;DHT22;6146;48.128;11.476;2022-10-23T09:53:32;28.40;68.30
12166;DHT22;6146;48.128;11.476;2022-10-23T09:56:05;28.80;66.70
12166;DHT22;6146;48.128;11.476;2022-10-23T09:58:39;29.50;64.20
12166;DHT22;6146;48.128;11.476;2022-10-23T10:01:22;30.00;62.40
12166;DHT22;6146;48.128;11.476;2022-10-23T10:03:49;31.00;58.00
12166;DHT22;6146;48.128;11.476;2022-10-23T10:06:28;31.00;58.30
12166;DHT22;6146;48.128;11.476;2022-10-23T10:08:56;31.20;56.50
12166;DHT22;6146;48.128;11.476;2022-10-23T10:11:31;31.00;56.20
12166;DHT22;6146;48.128;11.476;2022-10-23T10:14:12;30.80;57.50
12166;DHT22;6146;48.128;11.476;2022-10-23T10:17:05;31.10;56.30
12166;DHT22;6146;48.128;11.476;2022-10-23T10:22:41;32.20;54.40
12166;DHT22;6146;48.128;11.476;2022-10-23T10:25:34;32.30;50.80
12166;DHT22;6146;48.128;11.476;2022-10-23T10:30:35;32.50;50.80
12166;DHT22;6146;48.128;11.476;2022-10-23T10:35:41;30.90;52.00
12166;DHT22;6146;48.128;11.476;2022-10-23T10:52:09;31.10;53.40
12166;DHT22;6146;48.128;11.476;2022-10-23T10:54:58;30.20;54.80
12166;DHT22;6146;48.128;11.476;2022-10-23T10:57:33;31.40;54.90
12166;DHT22;6146;48.128;11.476;2022-10-23T11:00:13;32.20;51.40
12166;DHT22;6146;48.128;11.476;2022-10-23T11:02:46;31.90;51.30
12166;DHT22;6146;48.128;11.476;2022-10-23T11:08:01;31.80;51.80
12166;DHT22;6146;48.128;11.476;2022-10-23T11:10:28;31.70;50.70
12166;DHT22;6146;48.128;11.476;2022-10-23T11:12:55;31.50;53.80
12166;DHT22;6146;48.128;11.476;2022-10-23T11:15:26;31.60;52.40
12166;DHT22;6146;48.128;11.476;2022-10-23T11:17:57;30.90;52.30
12166;DHT22;6146;48.128;11.476;2022-10-23T11:31:18;28.70;57.00
12166;DHT22;6146;48.128;11.476;2022-10-23T11:33:56;27.70;59.70
12166;DHT22;6146;48.128;11.476;2022-10-23T11:36:54;27.50;61.50
12166;DHT22;6146;48.128;11.476;2022-10-23T11:39:25;27.00;62.10
12166;DHT22;6146;48.128;11.476;2022-10-23T11:41:54;26.80;63.60
12166;DHT22;6146;48.128;11.476;2022-10-23T11:44:41;26.30;66.10
12166;DHT22;6146;48.128;11.476;2022-10-23T11:52:35;28.20;63.70
12166;DHT22;6146;48.128;11.476;2022-10-23T11:55:15;27.80;61.00
12166;DHT22;6146;48.128;11.476;2022-10-23T11:57:42;27.40;64.70
12166;DHT22;6146;48.128;11.476;2022-10-23T12:00:21;28.00;64.30
12166;DHT22;6146;48.128;11.476;2022-10-23T12:02:53;27.60;64.00
12166;DHT22;6146;48.128;11.476;2022-10-23T12:05:36;27.60;63.30
12166;DHT22;6146;48.128;11.476;2022-10-23T12:08:19;27.60;63.70
12166;DHT22;6146;48.128;11.476;2022-10-23T12:10:47;27.70;65.80
12166;DHT22;6146;48.128;11.476;2022-10-23T12:15:54;27.60;63.80
12166;DHT22;6146;48.128;11.476;2022-10-23T12:18:20;28.60;62.10
12166;DHT22;6146;48.128;11.476;2022-10-23T12:20:50;29.20;61.20
12166;DHT22;6146;48.128;11.476;2022-10-23T12:23:26;29.70;59.00
12166;DHT22;6146;48.128;11.476;2022-10-23T12:34:46;26.90;67.40
12166;DHT22;6146;48.128;11.476;2022-10-23T12:40:07;25.50;71.20
12166;DHT22;6146;48.128;11.476;2022-10-23T12:42:34;25.20;72.50
12166;DHT22;6146;48.128;11.476;2022-10-23T12:45:20;24.70;74.70
12166;DHT22;6146;48.128;11.476;2022-10-23T12:47:48;24.70;75.20
12166;DHT22;6146;48.128;11.476;2022-10-23T12:50:24;24.90;75.10
12166;DHT22;6146;48.128;11.476;2022-10-23T12:52:55;24.80;74.60
12166;DHT22;6146;48.128;11.476;2022-10-23T12:55:22;24.70;75.70
12166;DHT22;6146;48.128;11.476;2022-10-23T12:57:48;24.50;75.30
12166;DHT22;6146;48.128;11.476;2022-10-23T13:00:17;24.70;75.70
12166;DHT22;6146;48.128;11.476;2022-10-23T13:02:43;26.00;73.00
12166;DHT22;6146;48.128;11.476;2022-10-23T13:05:13;27.20;69.90
12166;DHT22;6146;48.128;11.476;2022-10-23T13:07:46;27.80;67.80
12166;DHT22;6146;48.128;11.476;2022-10-23T13:10:14;28.10;65.80
12166;DHT22;6146;48.128;11.476;2022-10-23T13:12:42;27.80;67.60
12166;DHT22;6146;48.128;11.476;2022-10-23T13:17:44;28.60;64.10
12166;DHT22;6146;48.128;11.476;2022-10-23T13:25:34;28.00;64.80
12166;DHT22;6146;48.128;11.476;2022-10-23T13:30:40;26.80;70.50
12166;DHT22;6146;48.128;11.476;2022-10-23T13:33:24;26.60;70.10
12166;DHT22;6146;48.128;11.476;2022-10-23T13:38:30;25.30;74.50
12166;DHT22;6146;48.128;11.476;2022-10-23T13:40:57;24.70;77.20
12166;DHT22;6146;48.128;11.476;2022-10-23T13:43:25;24.50;78.90
12166;DHT22;6146;48.128;11.476;2022-10-23T13:45:50;24.10;80.00
12166;DHT22;6146;48.128;11.476;2022-10-23T13:48:16;23.80;81.00
12166;DHT22;6146;48.128;11.476;2022-10-23T13:50:43;23.80;81.80
12166;DHT22;6146;48.128;11.476;2022-10-23T13:53:12;23.90;81.80
12166;DHT22;6146;48.128;11.476;2022-10-23T13:55:39;23.80;82.50
12166;DHT22;6146;48.128;11.476;2022-10-23T13:58:05;23.80;82.80
12166;DHT22;6146;48.128;11.476;2022-10-23T14:00:31;24.00;82.80
12166;DHT22;6146;48.128;11.476;2022-10-23T14:02:56;24.00;82.20
12166;DHT22;6146;48.128;11.476;2022-10-23T14:05:22;24.10;82.50
12166;DHT22;6146;48.128;11.476;2022-10-23T14:07:47;24.00;83.20
12166;DHT22;6146;48.128;11.476;2022-10-23T14:10:13;23.80;83.60
12166;DHT22;6146;48.128;11.476;2022-10-23T14:12:43;23.70;84.70
12166;DHT22;6146;48.128;11.476;2022-10-23T14:15:09;23.50;84.80
12166;DHT22;6146;48.128;11.476;2022-10-23T14:17:35;23.50;86.20
12166;DHT22;6146;48.128;11.476;2022-10-23T14:20:02;23.20;86.60
12166;DHT22;6146;48.128;11.476;2022-10-23T14:22:27;23.10;87.90
12166;DHT22;6146;48.128;11.476;2022-10-23T14:24:53;23.00;88.10
12166;DHT22;6146;48.128;11.476;2022-10-23T14:27:18;22.80;89.60
12166;DHT22;6146;48.128;11.476;2022-10-23T14:29:44;22.80;90.20
12166;DHT22;6146;48.128;11.476;2022-10-23T14:32:10;22.70;90.50
12166;DHT22;6146;48.128;11.476;2022-10-23T14:34:38;22.60;90.80
12166;DHT22;6146;48.128;11.476;2022-10-23T14:37:05;22.40;91.20
12166;DHT22;6146;48.128;11.476;2022-10-23T14:39:30;22.40;91.50
12166;DHT22;6146;48.128;11.476;2022-10-23T14:41:56;22.40;92.00
12166;DHT22;6146;48.128;11.476;2022-10-23T14:44:22;22.40;92.20
12166;DHT22;6146;48.128;11.476;2022-10-23T14:46:47;22.20;92.30
12166;DHT22;6146;48.128;11.476;2022-10-23T14:49:13;22.00;93.20
12166;DHT22;6146;48.128;11.476;2022-10-23T14:51:38;21.90;93.60
12166;DHT22;6146;48.128;11.476;2022-10-23T14:54:05;21.70;94.40
12166;DHT22;6146;48.128;11.476;2022-10-23T14:56:34;21.50;95.10
12166;DHT22;6146;48.128;11.476;2022-10-23T14:59:00;21.50;95.60
12166;DHT22;6146;48.128;11.476;2022-10-23T15:01:34;21.30;96.00
12166;DHT22;6146;48.128;11.476;2022-10-23T15:04:00;21.30;96.60
12166;DHT22;6146;48.128;11.476;2022-10-23T15:06:26;21.20;96.90
12166;DHT22;6146;48.128;11.476;2022-10-23T15:08:52;21.30;97.40
12166;DHT22;6146;48.128;11.476;2022-10-23T15:11:22;21.10;97.90
12166;DHT22;6146;48.128;11.476;2022-10-23T15:13:48;21.10;98.30
12166;DHT22;6146;48.128;11.476;2022-10-23T15:16:14;21.00;99.20
12166;DHT22;6146;48.128;11.476;2022-10-23T15:18:40;20.90;99.70
12166;DHT22;6146;48.128;11.476;2022-10-23T15:21:06;20.80;99.90
12166;DHT22;6146;48.128;11.476;2022-10-23T15:23:37;20.70;99.90
12166;DHT22;6146;48.128;11.476;2022-10-23T15:26:05;20.60;99.90
12166;DHT22;6146;48.128;11.476;2022-10-23T15:28:31;20.60;99.90
12166;DHT22;6146;48.128;11.476;2022-10-23T15:30:57;20.50;99.90
12166;DHT22;6146;48.128;11.476;2022-10-23T15:33:23;20.30;99.90
12166;DHT22;6146;48.128;11.476;2022-10-23T15:35:50;20.20;99.90
12166;DHT22;6146;48.128;11.476;2022-10-23T15:38:16;20.10;99.90
12166;DHT22;6146;48.128;11.476;2022-10-23T15:40:43;20.00;99.90
12166;DHT22;6146;48.128;11.476;2022-10-23T15:43:11;19.90;99.90
12166;DHT22;6146;48.128;11.476;2022-10-23T15:45:36;19.80;99.90
12166;DHT22;6146;48.128;11.476;2022-10-23T15:48:02;19.80;99.90
12166;DHT22;6146;48.128;11.476;2022-10-23T15:50:28;19.70;99.90
12166;DHT22;6146;48.128;11.476;2022-10-23T15:52:53;19.60;99.90
12166;DHT22;6146;48.128;11.476;2022-10-23T15:55:19;19.50;99.90
12166;DHT22;6146;48.128;11.476;2022-10-23T15:57:45;19.40;99.90
12166;DHT22;6146;48.128;11.476;2022-10-23T16:00:12;19.30;99.90
12166;DHT22;6146;48.128;11.476;2022-10-23T16:02:38;19.20;99.90
12166;DHT22;6146;48.128;11.476;2022-10-23T16:05:05;19.20;99.90
12166;DHT22;6146;48.128;11.476;2022-10-23T16:07:30;19.10;99.90
12166;DHT22;6146;48.128;11.476;2022-10-23T16:09:56;19.00;99.90
12166;DHT22;6146;48.128;11.476;2022-10-23T16:12:22;18.90;99.90
12166;DHT22;6146;48.128;11.476;2022-10-23T16:14:48;18.90;99.90
12166;DHT22;6146;48.128;11.476;2022-10-23T16:17:13;18.80;99.90
12166;DHT22;6146;48.128;11.476;2022-10-23T16:19:39;18.70;99.90
12166;DHT22;6146;48.128;11.476;2022-10-23T16:22:05;18.70;99.90
12166;DHT22;6146;48.128;11.476;2022-10-23T16:24:31;18.60;99.90
12166;DHT22;6146;48.128;11.476;2022-10-23T16:26:57;18.50;99.90
12166;DHT22;6146;48.128;11.476;2022-10-23T16:29:24;18.50;99.90
12166;DHT22;6146;48.128;11.476;2022-10-23T16:31:51;18.40;99.90
12166;DHT22;6146;48.128;11.476;2022-10-23T16:34:17;18.30;99.90
12166;DHT22;6146;48.128;11.476;2022-10-23T16:36:43;18.30;99.90
12166;DHT22;6146;48.128;11.476;2022-10-23T16:39:10;18.30;99.90
12166;DHT22;6146;48.128;11.476;2022-10-23T16:41:36;18.20;99.90
12166;DHT22;6146;48.128;11.476;2022-10-23T16:44:02;18.10;99.90
12166;DHT22;6146;48.128;11.476;2022-10-23T16:46:27;18.10;99.90
12166;DHT22;6146;48.128;11.476;2022-10-23T16:48:53;18.00;99.90
12166;DHT22;6146;48.128;11.476;2022-10-23T16:51:21;17.90;99.90
12166;DHT22;6146;48.128;11.476;2022-10-23T16:53:48;17.90;99.90
12166;DHT22;6146;48.128;11.476;2022-10-23T16:56:17;17.80;99.90
12166;DHT22;6146;48.128;11.476;2022-10-23T16:58:43;17.70;99.90
12166;DHT22;6146;48.128;11.476;2022-10-23T17:01:15;17.70;99.90
12166;DHT22;6146;48.128;11.476;2022-10-23T17:03:43;17.70;99.90
12166;DHT22;6146;48.128;11.476;2022-10-23T17:06:12;17.60;99.90
12166;DHT22;6146;48.128;11.476;2022-10-23T17:08:38;17.60;99.90
12166;DHT22;6146;48.128;11.476;2022-10-23T17:11:08;17.50;99.90
12166;DHT22;6146;48.128;11.476;2022-10-23T17:13:35;17.40;99.90
12166;DHT22;6146;48.128;11.476;2022-10-23T17:16:06;17.30;99.90
12166;DHT22;6146;48.128;11.476;2022-10-23T17:18:33;17.20;99.90
12166;DHT22;6146;48.128;11.476;2022-10-23T17:20:58;17.10;99.90
12166;DHT22;6146;48.128;11.476;2022-10-23T17:23:25;17.10;99.90
12166;DHT22;6146;48.128;11.476;2022-10-23T17:25:51;17.00;99.90
12166;DHT22;6146;48.128;11.476;2022-10-23T17:28:16;17.00;99.90
12166;DHT22;6146;48.128;11.476;2022-10-23T17:30:42;17.00;99.90
12166;DHT22;6146;48.128;11.476;2022-10-23T17:33:07;16.90;99.90
12166;DHT22;6146;48.128;11.476;2022-10-23T17:35:33;17.00;99.90
12166;DHT22;6146;48.128;11.476;2022-10-23T17:37:59;16.90;99.90